Aviation Digital Data Service (ADDS)

Output produced by METARs form (0423 UTC 24 January 2019)
found at http://www.aviationweather.gov/metar/data/
 
Forecast for: LZPP (PIESTANY , SK)
Text: TAF LZPP 231700Z 2318/2403 01008KT 9999 OVC025
Forecast period: 1800 UTC 23 January 2019 to 0300 UTC 24 January 2019
Forecast type: FROM: standard forecast or significant change
Winds: from the N (10 degrees) at 9 MPH (8 knots; 4.1 m/s)
Visibility: 6 or more miles 10+ km)
Ceiling: 2500 feet AGL
Clouds: overcast cloud deck at 2500 feet AGL
Weather: no significant weather forecast for this period
Text: PROB30
Forecast period: 1800 to 1900 UTC 23 January 2019
Forecast type: TEMPORARY: The following changes expected for less than half the time period
Visibility: 2.80 miles (4.51 km)
Ceiling: 1400 feet AGL
Clouds: overcast cloud deck at 1400 feet AGL
Weather: -SG  (light snow grains)